createdAt,value
2023-01-18T00:01:15.991Z,6.30
2023-01-18T00:03:44.174Z,6.07
2023-01-18T00:06:14.039Z,6.23
2023-01-18T00:08:43.228Z,5.60
2023-01-18T00:11:13.648Z,5.37
2023-01-18T00:13:41.884Z,5.20
2023-01-18T00:16:13.301Z,6.00
2023-01-18T00:18:41.504Z,5.93
2023-01-18T00:21:11.904Z,5.43
2023-01-18T00:23:42.025Z,5.73
2023-01-18T00:26:11.757Z,6.23
2023-01-18T00:28:41.067Z,5.70
2023-01-18T00:31:15.061Z,5.67
2023-01-18T00:33:44.489Z,6.27
2023-01-18T00:36:13.202Z,5.70
2023-01-18T00:38:43.183Z,6.13
2023-01-18T00:41:11.294Z,6.00
2023-01-18T00:43:41.419Z,5.60
2023-01-18T00:46:11.511Z,5.97
2023-01-18T00:48:41.221Z,6.47
2023-01-18T00:51:11.746Z,5.40
2023-01-18T00:53:40.558Z,5.03
2023-01-18T00:56:13.160Z,5.23
2023-01-18T00:58:41.317Z,5.73
2023-01-18T01:01:10.800Z,4.97
2023-01-18T01:03:57.162Z,5.63
2023-01-18T01:06:47.633Z,5.60
2023-01-18T01:09:18.518Z,4.87
2023-01-18T01:12:06.791Z,5.17
2023-01-18T01:14:56.661Z,5.40
2023-01-18T01:17:42.198Z,5.20
2023-01-18T01:20:29.040Z,5.30
2023-01-18T01:23:14.497Z,5.03
2023-01-18T01:26:01.513Z,5.60
2023-01-18T01:28:31.092Z,5.27
2023-01-18T01:31:00.448Z,5.20
2023-01-18T01:33:29.007Z,4.90
2023-01-18T01:35:57.952Z,5.57
2023-01-18T01:38:26.626Z,5.70
2023-01-18T01:40:59.661Z,5.50
2023-01-18T01:43:41.501Z,5.50
2023-01-18T01:46:28.562Z,5.60
2023-01-18T01:49:02.794Z,5.47
2023-01-18T01:51:31.796Z,5.87
2023-01-18T01:54:03.044Z,5.90
2023-01-18T01:56:32.505Z,6.00
2023-01-18T01:59:03.949Z,5.80
2023-01-18T02:01:32.270Z,6.03
2023-01-18T02:04:02.771Z,5.30
2023-01-18T02:06:35.765Z,5.73
2023-01-18T02:09:06.924Z,5.73
2023-01-18T02:11:35.651Z,5.57
2023-01-18T02:14:08.424Z,6.30
2023-01-18T02:16:50.317Z,6.37
2023-01-18T02:19:39.455Z,6.60
2023-01-18T02:22:15.673Z,5.73
2023-01-18T02:25:19.720Z,5.83
2023-01-18T02:27:56.848Z,6.13
2023-01-18T02:30:32.718Z,6.00
2023-01-18T02:33:07.646Z,5.80
2023-01-18T02:35:44.423Z,5.50
2023-01-18T02:38:18.579Z,5.73
2023-01-18T02:41:08.944Z,5.60
2023-01-18T02:43:55.982Z,5.17
2023-01-18T02:46:34.034Z,6.03
2023-01-18T02:49:05.829Z,6.20
2023-01-18T02:51:34.573Z,6.07
2023-01-18T02:54:09.481Z,6.93
2023-01-18T02:56:41.850Z,6.50
2023-01-18T02:59:14.372Z,7.30
2023-01-18T03:01:48.073Z,6.10
2023-01-18T03:04:20.823Z,5.77
2023-01-18T03:06:53.465Z,7.27
2023-01-18T03:09:25.862Z,7.10
2023-01-18T03:11:59.250Z,6.30
2023-01-18T03:14:38.511Z,6.07
2023-01-18T03:17:15.741Z,8.13
2023-01-18T03:20:06.483Z,7.67
2023-01-18T03:22:56.256Z,7.53
2023-01-18T03:25:29.032Z,7.30
2023-01-18T03:28:16.711Z,7.70
2023-01-18T03:31:05.274Z,7.30
2023-01-18T03:33:45.847Z,7.33
2023-01-18T03:36:22.424Z,8.37
2023-01-18T03:38:55.619Z,7.97
2023-01-18T03:41:27.997Z,8.37
2023-01-18T03:44:00.136Z,8.60
2023-01-18T03:46:32.814Z,8.43
2023-01-18T03:49:02.821Z,8.40
2023-01-18T03:51:41.781Z,8.93
2023-01-18T03:54:17.649Z,7.80
2023-01-18T03:56:51.716Z,8.50
2023-01-18T03:59:21.628Z,8.37
2023-01-18T04:01:51.196Z,7.97
2023-01-18T04:04:20.767Z,8.13
2023-01-18T04:06:49.006Z,8.10
2023-01-18T04:09:17.315Z,7.93
2023-01-18T04:11:45.492Z,7.83
2023-01-18T04:14:13.603Z,7.73
2023-01-18T04:16:41.842Z,7.80
2023-01-18T04:19:10.768Z,7.77
2023-01-18T04:21:40.540Z,8.33
2023-01-18T04:24:09.321Z,7.23
2023-01-18T04:26:37.594Z,8.93
2023-01-18T04:29:05.982Z,8.23
2023-01-18T04:31:34.203Z,8.47
2023-01-18T04:34:02.479Z,8.77
2023-01-18T04:36:30.639Z,8.37
2023-01-18T04:39:00.183Z,7.77
2023-01-18T04:41:28.345Z,7.87
2023-01-18T04:43:56.543Z,8.13
2023-01-18T04:46:24.726Z,7.50
2023-01-18T04:48:53.256Z,7.83
2023-01-18T04:51:23.855Z,8.50
2023-01-18T04:53:52.411Z,8.10
2023-01-18T04:56:21.828Z,7.73
2023-01-18T04:58:50.013Z,7.80
2023-01-18T05:01:18.464Z,7.67
2023-01-18T05:03:46.793Z,8.50
2023-01-18T05:06:19.894Z,8.20
2023-01-18T05:08:52.480Z,8.10
2023-01-18T05:11:25.184Z,7.73
2023-01-18T05:13:53.411Z,8.23
2023-01-18T05:16:23.695Z,7.50
2023-01-18T05:18:52.009Z,7.83
2023-01-18T05:21:20.289Z,7.50
2023-01-18T05:23:48.846Z,7.73
2023-01-18T05:26:19.024Z,7.50
2023-01-18T05:28:49.211Z,7.97
2023-01-18T05:31:21.122Z,7.63
2023-01-18T05:33:49.840Z,7.50
2023-01-18T05:36:18.096Z,7.63
2023-01-18T05:38:47.485Z,6.90
2023-01-18T05:41:15.825Z,7.27
2023-01-18T05:43:44.010Z,7.57
2023-01-18T05:46:13.860Z,7.47
2023-01-18T05:48:42.144Z,7.27
2023-01-18T05:51:11.481Z,6.60
2023-01-18T05:53:41.247Z,6.97
2023-01-18T05:56:10.071Z,6.53
2023-01-18T05:58:38.415Z,6.23
2023-01-18T06:01:07.660Z,6.23
2023-01-18T06:03:37.946Z,6.63
2023-01-18T06:06:08.785Z,6.13
2023-01-18T06:08:37.087Z,6.63
2023-01-18T06:11:06.508Z,7.00
2023-01-18T06:13:34.773Z,6.13
2023-01-18T06:16:03.752Z,6.50
2023-01-18T06:18:34.191Z,6.07
2023-01-18T06:21:07.812Z,6.50
2023-01-18T06:23:36.250Z,5.80
2023-01-18T06:26:04.944Z,6.20
2023-01-18T06:28:33.273Z,5.83
2023-01-18T06:31:04.729Z,6.80
2023-01-18T06:33:32.847Z,6.20
2023-01-18T06:36:01.877Z,7.00
2023-01-18T06:38:31.344Z,6.27
2023-01-18T06:40:59.742Z,6.80
2023-01-18T06:43:27.935Z,6.43
2023-01-18T06:45:57.126Z,7.13
2023-01-18T06:48:26.428Z,7.00
2023-01-18T06:50:57.973Z,7.13
2023-01-18T06:53:26.762Z,6.90
2023-01-18T06:55:58.000Z,7.03
2023-01-18T06:58:27.396Z,7.30
2023-01-18T07:00:56.779Z,7.20
2023-01-18T07:03:25.676Z,7.60
2023-01-18T07:05:54.769Z,7.17
2023-01-18T07:08:23.669Z,7.03
2023-01-18T07:10:53.570Z,7.50
2023-01-18T07:13:25.225Z,8.23
2023-01-18T07:15:56.527Z,8.23
2023-01-18T07:18:24.906Z,7.83
2023-01-18T07:21:01.569Z,8.33
2023-01-18T07:23:30.755Z,9.57
2023-01-18T07:26:03.342Z,8.43
2023-01-18T07:28:33.974Z,8.77
2023-01-18T07:31:03.366Z,8.83
2023-01-18T07:33:32.485Z,8.90
2023-01-18T07:36:00.656Z,9.50
2023-01-18T07:38:29.566Z,9.07
2023-01-18T07:41:03.249Z,9.13
2023-01-18T07:43:34.089Z,8.03
2023-01-18T07:46:04.078Z,8.23
2023-01-18T07:48:33.546Z,8.73
2023-01-18T07:51:03.888Z,8.03
2023-01-18T07:53:34.536Z,8.30
2023-01-18T07:56:04.049Z,6.97
2023-01-18T07:58:33.906Z,7.27
2023-01-18T08:01:05.905Z,6.83
2023-01-18T08:03:34.520Z,7.57
2023-01-18T08:06:05.967Z,7.33
2023-01-18T08:08:35.104Z,9.57
2023-01-18T08:11:05.461Z,7.43
2023-01-18T08:13:35.570Z,7.73
2023-01-18T08:16:06.057Z,6.87
2023-01-18T08:18:34.702Z,7.40
2023-01-18T08:21:03.047Z,7.10
2023-01-18T08:23:31.286Z,6.87
2023-01-18T08:26:03.237Z,6.63
2023-01-18T08:28:31.992Z,6.73
2023-01-18T08:31:10.076Z,5.97
2023-01-18T08:33:42.991Z,5.70
2023-01-18T08:36:12.007Z,6.40
2023-01-18T08:38:40.889Z,6.00
2023-01-18T08:41:09.125Z,5.87
2023-01-18T08:43:37.677Z,6.10
2023-01-18T08:46:07.334Z,5.60
2023-01-18T08:48:35.663Z,5.73
2023-01-18T08:51:04.910Z,5.50
2023-01-18T08:53:33.392Z,6.00
2023-01-18T08:56:05.935Z,6.13
2023-01-18T08:58:34.605Z,6.53
2023-01-18T09:01:08.145Z,6.50
2023-01-18T09:03:37.060Z,6.30
2023-01-18T09:06:11.712Z,6.30
2023-01-18T09:08:41.825Z,6.23
2023-01-18T09:11:11.680Z,6.70
2023-01-18T09:13:58.510Z,6.57
2023-01-18T09:16:29.423Z,6.43
2023-01-18T09:18:58.367Z,6.33
2023-01-18T09:21:27.912Z,7.37
2023-01-18T09:23:56.193Z,6.73
2023-01-18T09:26:24.471Z,6.47
2023-01-18T09:28:54.004Z,6.10
2023-01-18T09:31:24.679Z,6.57
2023-01-18T09:33:57.393Z,6.67
2023-01-18T09:36:29.600Z,6.20
2023-01-18T09:38:58.030Z,6.73
2023-01-18T09:41:33.157Z,6.50
2023-01-18T09:44:06.798Z,6.50
2023-01-18T09:46:37.947Z,6.50
2023-01-18T09:49:14.131Z,6.90
2023-01-18T09:51:52.034Z,6.73
2023-01-18T09:54:32.851Z,7.20
2023-01-18T09:57:06.634Z,6.83
2023-01-18T09:59:41.441Z,6.90
2023-01-18T10:02:23.656Z,6.97
2023-01-18T10:04:56.503Z,7.90
2023-01-18T10:07:27.155Z,8.20
2023-01-18T10:09:59.698Z,7.37
2023-01-18T10:12:34.583Z,7.80
2023-01-18T10:15:10.665Z,6.57
2023-01-18T10:17:42.401Z,7.90
2023-01-18T10:20:17.792Z,7.23
2023-01-18T10:22:51.929Z,7.70
2023-01-18T10:25:31.942Z,7.83
2023-01-18T10:28:25.429Z,7.50
2023-01-18T10:31:07.959Z,7.20
2023-01-18T10:33:42.374Z,6.70
2023-01-18T10:36:16.828Z,6.67
2023-01-18T10:38:45.803Z,7.00
2023-01-18T10:41:20.608Z,6.57
2023-01-18T10:43:48.983Z,6.47
2023-01-18T10:46:19.822Z,5.90
2023-01-18T10:48:51.677Z,5.30
2023-01-18T10:51:35.894Z,5.20
2023-01-18T10:54:23.107Z,6.43
2023-01-18T10:57:03.297Z,5.70
2023-01-18T10:59:37.314Z,5.37
2023-01-18T11:02:06.687Z,5.40
2023-01-18T11:04:35.858Z,5.60
2023-01-18T11:07:06.521Z,5.40
2023-01-18T11:09:43.448Z,5.23
2023-01-18T11:12:37.663Z,4.13
2023-01-18T11:15:27.689Z,3.73
2023-01-18T11:18:09.873Z,3.23
2023-01-18T11:20:48.251Z,3.97
2023-01-18T11:23:26.654Z,3.20
2023-01-18T11:26:01.930Z,2.90
2023-01-18T11:28:37.301Z,2.80
2023-01-18T11:31:12.934Z,2.63
2023-01-18T11:33:50.963Z,2.63
2023-01-18T11:36:20.809Z,2.47
2023-01-18T11:38:50.696Z,2.53
2023-01-18T11:41:22.353Z,19.77
2023-01-18T11:44:05.358Z,4.90
2023-01-18T11:46:41.198Z,10.50
2023-01-18T11:49:29.090Z,23.77
2023-01-18T11:52:02.343Z,13.70
2023-01-18T11:54:38.776Z,7.37
2023-01-18T11:57:10.341Z,11.30
2023-01-18T11:59:42.811Z,5.20
2023-01-18T12:02:42.341Z,3.00
2023-01-18T12:05:30.672Z,2.87
2023-01-18T12:08:14.816Z,2.60
2023-01-18T12:10:53.724Z,3.30
2023-01-18T12:13:36.001Z,3.87
2023-01-18T12:16:18.675Z,3.93
2023-01-18T12:19:19.374Z,2.67
2023-01-18T12:22:04.131Z,2.70
2023-01-18T12:24:46.118Z,2.40
2023-01-18T12:27:26.514Z,2.70
2023-01-18T12:30:16.966Z,2.70
2023-01-18T12:33:02.287Z,3.20
2023-01-18T12:35:53.572Z,3.70
2023-01-18T12:38:24.049Z,3.93
2023-01-18T12:41:30.854Z,2.77
2023-01-18T12:44:25.631Z,2.70
2023-01-18T12:47:03.137Z,2.80
2023-01-18T12:49:37.505Z,2.70
2023-01-18T12:52:18.472Z,2.40
2023-01-18T12:54:50.275Z,2.43
2023-01-18T12:57:21.450Z,1.90
2023-01-18T12:59:56.268Z,2.10
2023-01-18T13:02:33.336Z,1.70
2023-01-18T13:05:07.448Z,1.83
2023-01-18T13:07:40.239Z,2.10
2023-01-18T13:10:19.597Z,2.30
2023-01-18T13:12:49.426Z,1.97
2023-01-18T13:15:32.324Z,2.30
2023-01-18T13:18:08.209Z,3.13
2023-01-18T13:20:45.241Z,2.00
2023-01-18T13:23:27.528Z,2.40
2023-01-18T13:26:01.939Z,2.40
2023-01-18T13:28:30.426Z,2.33
2023-01-18T13:31:03.302Z,2.83
2023-01-18T13:33:34.410Z,2.97
2023-01-18T13:36:07.925Z,2.60
2023-01-18T13:38:42.277Z,2.87
2023-01-18T13:41:13.383Z,2.50
2023-01-18T13:44:03.851Z,2.60
2023-01-18T13:46:36.789Z,7.07
2023-01-18T13:49:37.731Z,3.17
2023-01-18T13:52:30.559Z,2.40
2023-01-18T13:55:06.861Z,2.30
2023-01-18T13:57:36.520Z,2.23
2023-01-18T14:00:07.576Z,2.03
2023-01-18T14:02:43.415Z,2.00
2023-01-18T14:05:25.862Z,2.37
2023-01-18T14:07:58.460Z,2.33
2023-01-18T14:10:31.813Z,2.00
2023-01-18T14:13:02.201Z,2.30
2023-01-18T14:15:47.417Z,1.90
2023-01-18T14:18:24.239Z,1.70
2023-01-18T14:21:06.165Z,1.70
2023-01-18T14:23:56.573Z,2.70
2023-01-18T14:26:29.973Z,2.00
2023-01-18T14:29:01.309Z,1.93
2023-01-18T14:31:32.999Z,2.00
2023-01-18T14:34:24.648Z,2.30
2023-01-18T14:36:53.708Z,2.03
2023-01-18T14:39:22.099Z,2.37
2023-01-18T14:41:53.787Z,1.90
2023-01-18T14:44:24.865Z,2.60
2023-01-18T14:46:55.856Z,2.90
2023-01-18T14:49:31.071Z,2.33
2023-01-18T14:52:00.362Z,1.83
2023-01-18T14:54:29.342Z,2.07
2023-01-18T14:57:05.137Z,1.90
2023-01-18T14:59:33.588Z,2.00
2023-01-18T15:02:03.762Z,1.83
2023-01-18T15:04:38.803Z,1.73
2023-01-18T15:07:11.028Z,1.70
2023-01-18T15:09:43.070Z,1.80
2023-01-18T15:12:14.771Z,1.97
2023-01-18T15:14:45.826Z,1.77
2023-01-18T15:17:21.809Z,2.07
2023-01-18T15:19:55.871Z,1.70
2023-01-18T15:22:30.428Z,1.93
2023-01-18T15:25:00.933Z,2.20
2023-01-18T15:27:35.547Z,2.50
2023-01-18T15:30:12.549Z,1.73
2023-01-18T15:32:41.050Z,2.20
2023-01-18T15:35:14.910Z,1.93
2023-01-18T15:37:43.180Z,2.77
2023-01-18T15:40:29.288Z,2.40
2023-01-18T15:43:04.281Z,2.50
2023-01-18T15:45:34.735Z,2.60
2023-01-18T15:48:08.535Z,2.60
2023-01-18T15:50:44.444Z,2.47
2023-01-18T15:53:32.167Z,2.80
2023-01-18T15:56:03.393Z,2.70
2023-01-18T15:58:35.887Z,2.70
2023-01-18T16:01:05.641Z,2.50
2023-01-18T16:03:37.716Z,2.47
2023-01-18T16:06:11.864Z,2.93
2023-01-18T16:08:58.785Z,2.60
2023-01-18T16:11:30.099Z,2.97
2023-01-18T16:13:59.806Z,2.40
2023-01-18T16:16:29.241Z,2.40
2023-01-18T16:19:06.658Z,2.30
2023-01-18T16:21:45.258Z,2.50
2023-01-18T16:24:20.664Z,2.53
2023-01-18T16:26:49.494Z,2.30
2023-01-18T16:29:17.694Z,2.70
2023-01-18T16:31:46.376Z,2.60
2023-01-18T16:34:21.344Z,2.63
2023-01-18T16:36:51.421Z,2.43
2023-01-18T16:39:20.057Z,2.47
2023-01-18T16:41:53.708Z,2.63
2023-01-18T16:44:24.466Z,2.20
2023-01-18T16:46:53.855Z,2.50
2023-01-18T16:49:22.140Z,2.60
2023-01-18T16:51:51.728Z,2.33
2023-01-18T16:54:20.064Z,2.10
2023-01-18T16:56:48.459Z,2.80
2023-01-18T16:59:18.474Z,2.67
2023-01-18T17:01:47.316Z,2.10
2023-01-18T17:04:16.181Z,2.37
2023-01-18T17:06:45.489Z,2.30
2023-01-18T17:09:22.580Z,2.20
2023-01-18T17:11:51.342Z,2.10
2023-01-18T17:14:20.392Z,2.10
2023-01-18T17:16:49.915Z,2.40
2023-01-18T17:19:20.165Z,2.30
2023-01-18T17:21:49.572Z,2.50
2023-01-18T17:24:21.101Z,2.50
2023-01-18T17:26:49.416Z,2.40
2023-01-18T17:29:21.890Z,2.37
2023-01-18T17:31:53.041Z,2.93
2023-01-18T17:34:27.867Z,3.13
2023-01-18T17:36:58.752Z,2.80
2023-01-18T17:39:42.581Z,3.03
2023-01-18T17:42:25.914Z,4.30
2023-01-18T17:45:03.743Z,4.63
2023-01-18T17:47:33.104Z,3.60
2023-01-18T17:50:03.584Z,3.70
2023-01-18T17:52:31.844Z,2.90
2023-01-18T17:55:01.468Z,3.20
2023-01-18T17:57:29.821Z,3.27
2023-01-18T17:59:58.409Z,4.33
2023-01-18T18:02:27.290Z,4.27
2023-01-18T18:04:55.845Z,3.60
2023-01-18T18:07:24.031Z,3.97
2023-01-18T18:09:56.717Z,3.77
2023-01-18T18:12:26.316Z,4.37
2023-01-18T18:14:55.896Z,4.40
2023-01-18T18:17:24.921Z,4.33
2023-01-18T18:19:53.125Z,4.53
2023-01-18T18:22:21.673Z,4.90
2023-01-18T18:24:52.900Z,4.90
2023-01-18T18:27:23.168Z,5.07
2023-01-18T18:29:52.926Z,5.00
2023-01-18T18:32:21.166Z,5.10
2023-01-18T18:34:49.552Z,4.73
2023-01-18T18:37:19.836Z,4.83
2023-01-18T18:39:48.247Z,5.40
2023-01-18T18:42:16.458Z,4.93
2023-01-18T18:44:44.699Z,5.83
2023-01-18T18:47:14.243Z,5.17
2023-01-18T18:49:43.640Z,5.90
2023-01-18T18:52:11.996Z,5.83
2023-01-18T18:54:40.250Z,6.40
2023-01-18T18:57:08.559Z,6.83
2023-01-18T18:59:36.830Z,6.93
2023-01-18T19:02:05.085Z,7.17
2023-01-18T19:04:35.963Z,6.97
2023-01-18T19:07:05.270Z,7.13
2023-01-18T19:09:34.227Z,6.37
2023-01-18T19:12:02.540Z,6.90
2023-01-18T19:14:30.864Z,7.17
2023-01-18T19:17:00.142Z,7.03
2023-01-18T19:19:30.177Z,7.27
2023-01-18T19:21:59.826Z,7.20
2023-01-18T19:24:31.826Z,6.77
2023-01-18T19:27:00.163Z,7.43
2023-01-18T19:29:28.405Z,7.47
2023-01-18T19:31:57.097Z,7.03
2023-01-18T19:34:25.782Z,6.93
2023-01-18T19:36:54.390Z,7.33
2023-01-18T19:39:24.376Z,7.37
2023-01-18T19:41:52.821Z,7.50
2023-01-18T19:44:37.558Z,7.87
2023-01-18T19:47:08.024Z,7.90
2023-01-18T19:49:36.380Z,7.73
2023-01-18T19:52:24.997Z,7.80
2023-01-18T19:55:03.362Z,8.30
2023-01-18T19:57:31.923Z,7.73
2023-01-18T20:00:03.953Z,8.40
2023-01-18T20:02:41.012Z,9.47
2023-01-18T20:05:09.974Z,8.87
2023-01-18T20:07:39.457Z,8.70
2023-01-18T20:10:10.287Z,8.80
2023-01-18T20:12:38.543Z,9.00
2023-01-18T20:15:07.792Z,8.90
2023-01-18T20:17:52.925Z,8.30
2023-01-18T20:20:31.773Z,8.53
2023-01-18T20:23:04.519Z,8.47
2023-01-18T20:25:34.401Z,8.83
2023-01-18T20:28:02.659Z,9.57
2023-01-18T20:30:32.248Z,8.30
2023-01-18T20:33:04.068Z,9.23
2023-01-18T20:35:33.159Z,9.37
2023-01-18T20:38:07.329Z,9.60
2023-01-18T20:40:37.057Z,9.40
2023-01-18T20:43:05.234Z,9.80
2023-01-18T20:49:48.972Z,10.17
2023-01-18T20:52:17.153Z,9.93
2023-01-18T20:54:45.383Z,9.77
2023-01-18T20:57:15.303Z,9.57
2023-01-18T20:59:43.700Z,9.90
2023-01-18T21:02:12.489Z,9.43
2023-01-18T21:04:41.027Z,10.00
2023-01-18T21:07:09.204Z,9.80
2023-01-18T21:09:37.543Z,10.17
2023-01-18T21:12:05.844Z,10.60
2023-01-18T21:14:35.465Z,10.17
2023-01-18T21:17:04.025Z,10.67
2023-01-18T21:19:32.499Z,11.07
2023-01-18T21:22:01.288Z,10.67
2023-01-18T21:24:29.783Z,11.07
2023-01-18T21:26:58.121Z,11.77
2023-01-18T21:29:26.516Z,11.60
2023-01-18T21:31:56.297Z,11.23
2023-01-18T21:34:24.709Z,12.07
2023-01-18T21:36:53.040Z,12.63
2023-01-18T21:39:25.032Z,10.80
2023-01-18T21:42:11.424Z,10.27
2023-01-18T21:44:57.491Z,10.17
2023-01-18T21:47:27.167Z,11.37
2023-01-18T21:50:17.910Z,11.47
2023-01-18T21:53:04.256Z,10.47
2023-01-18T21:55:32.525Z,11.57
2023-01-18T21:58:18.206Z,11.13
2023-01-18T22:00:46.806Z,12.17
2023-01-18T22:03:18.379Z,11.57
2023-01-18T22:05:45.622Z,11.60
2023-01-18T22:08:13.828Z,12.17
2023-01-18T22:10:42.091Z,10.80
2023-01-18T22:13:10.301Z,10.40
2023-01-18T22:15:38.849Z,10.87
2023-01-18T22:18:07.293Z,11.30
2023-01-18T22:20:37.671Z,10.90
2023-01-18T22:23:06.068Z,11.10
2023-01-18T22:25:34.314Z,11.00
2023-01-18T22:28:02.994Z,10.30
2023-01-18T22:30:31.375Z,10.77
2023-01-18T22:32:59.798Z,10.57
2023-01-18T22:35:28.246Z,11.60
2023-01-18T22:37:58.386Z,10.73
2023-01-18T22:40:26.880Z,10.90
2023-01-18T22:42:55.288Z,10.93
2023-01-18T22:45:23.586Z,10.70
2023-01-18T22:47:51.824Z,11.00
2023-01-18T22:50:20.321Z,11.57
2023-01-18T22:52:48.558Z,10.93
2023-01-18T22:55:18.284Z,10.93
2023-01-18T22:57:46.491Z,11.63
2023-01-18T23:00:15.501Z,10.50
2023-01-18T23:02:43.822Z,10.67
2023-01-18T23:05:12.335Z,11.10
2023-01-18T23:07:40.981Z,10.40
2023-01-18T23:10:10.349Z,10.40
2023-01-18T23:12:39.991Z,10.87
2023-01-18T23:15:27.620Z,10.43
2023-01-18T23:17:55.968Z,10.97
2023-01-18T23:20:24.351Z,11.10
2023-01-18T23:22:52.518Z,10.80
2023-01-18T23:25:20.692Z,10.93
2023-01-18T23:27:50.425Z,10.53
2023-01-18T23:30:19.147Z,10.73
2023-01-18T23:32:47.454Z,11.17
2023-01-18T23:35:15.667Z,10.87
2023-01-18T23:37:44.010Z,10.97
2023-01-18T23:40:31.643Z,10.27
2023-01-18T23:43:18.514Z,10.03
2023-01-18T23:46:04.188Z,9.87
2023-01-18T23:48:50.005Z,10.17
2023-01-18T23:51:35.311Z,11.03
2023-01-18T23:54:18.735Z,10.33
2023-01-18T23:56:48.018Z,10.70
2023-01-18T23:59:17.558Z,10.37
